Warren, IN (46792)

1:10 PM EDT on September 05, 2015 (GMT -0400)
Elite Ag Solutions | | Change Station
CLOSE
Current Station
Personal Weather Station
Location: Warren, IN
Elevation: 812 ft
Nearby Weather Stations

Elev 812 ft 40.68 °N, 85.42 °W | Updated 44 days ago

Partly Cloudy
Partly Cloudy
86 °F
Feels Like 88 °F
N
5
Wind Variable Wind from WSW
Gusts mph

Today
High -- | Low -- °F
--% Chance of Precip.
Yesterday
High -- | Low -- °F
Precip. -- in
7:12 AM 8:07 PM
Waning Gibbous, 47% visible
Pressure 30.16 in
Visibility -9999.0 miles
Clouds Clear
Heat Index 88 °F
Dew Point 67 °F
Humidity 54%
Rainfall in
Snow Depth Not available.
UV 9 out of 12
Pollen 9.50 out of 12
Air Quality Not available.
Flu Activity Not available.
METAR KMZZ 051655Z AUTO 28005KT CLR 29/14 A3016 RMK AO2 T02910140 PWINO
Pressure 30.16 in
Visibility -9999.0 miles
Clouds Clear
Heat Index 88 °F
Dew Point 67 °F
Humidity 54%
Rainfall in
Snow Depth Not available.
UV 9 out of 12
Pollen 9.50 out of 12
Air Quality Not available.
Flu Activity Not available.
METAR KMZZ 051655Z AUTO 28005KT CLR 29/14 A3016 RMK AO2 T02910140 PWINO

10-Day Weather Forecast

×

Almanac

Astronomy

Sep. 05, 2015 Rise Set
Actual Time
Civil Twilight
Nautical Twilight
Astronomical Twilight
Moon
Length of Visible Light
Length of Day
Tomorrow will be .
, % of the Moon is Illuminated

Today's Extremes

State Highs State Lows

Community

WunderPhotos

Upload Photos

1,852,504 photos uploaded!

WunderBlogs® & News

Nearby

Air Quality

  Air Quality AQ Index Pollutant
Not available.

Snow Depth

Station Depth Elevation

Earthquake Activity

City Distance Mag. Time & Date
Minimum magnitude displayed is 2.5.

Coastal Water Temperatures

Place Temperature

Stations

Nearby Weather Stations

Station Location Temp. Windchill Dew Point Humidity Wind Precip. Elev Updated Type